Time;durP1;ratioP1;P1;durP2;ratioP2;P2;SDS_P1;SDS_P2;PMS_P1;PMS_P2;Temp;Humidity;BMP_temperature;BMP_pressure;BME280_temperature;BME280_humidity;BME280_pressure;Samples;Min_cycle;Max_cycle;Signal;HPM_P1;HPM_P2
2022/10/10 00:00:39;;;;;;;10.98;6.10;;;11.00;99.90;;;;;;5035325;28;20025;-66
2022/10/10 00:03:05;;;;;;;9.38;5.80;;;10.90;99.90;;;;;;5038043;28;20037;-66
2022/10/10 00:05:31;;;;;;;15.63;7.05;;;10.90;99.90;;;;;;5047721;28;20028;-66
2022/10/10 00:07:57;;;;;;;11.10;6.47;;;10.90;99.90;;;;;;5048781;28;20021;-66
2022/10/10 00:10:23;;;;;;;13.40;6.85;;;10.90;99.90;;;;;;5040480;28;20093;-66
2022/10/10 00:12:49;;;;;;;11.68;6.65;;;10.90;99.90;;;;;;5042759;28;20120;-66
2022/10/10 00:15:18;;;;;;;13.73;6.35;;;10.90;99.90;;;;;;5043199;28;20033;-66
2022/10/10 00:17:44;;;;;;;14.20;6.45;;;10.90;99.90;;;;;;5043566;28;20037;-66
2022/10/10 00:20:11;;;;;;;10.35;6.78;;;10.80;99.90;;;;;;5041901;28;20036;-67
2022/10/10 00:22:37;;;;;;;17.25;7.90;;;10.80;99.90;;;;;;5039037;28;20116;-66
2022/10/10 00:25:04;;;;;;;12.07;6.50;;;10.80;99.90;;;;;;5045346;28;20155;-66
2022/10/10 00:27:30;;;;;;;10.80;6.68;;;10.70;99.90;;;;;;5051608;28;20188;-66
2022/10/10 00:29:56;;;;;;;14.45;6.93;;;10.80;99.90;;;;;;5039990;28;20505;-68
2022/10/10 00:32:21;;;;;;;12.95;7.30;;;10.70;99.90;;;;;;5041938;28;20389;-66
2022/10/10 00:34:47;;;;;;;12.45;7.15;;;10.60;99.90;;;;;;5044842;28;20485;-66
2022/10/10 00:37:12;;;;;;;10.98;6.57;;;10.60;99.90;;;;;;5048445;28;20099;-66
2022/10/10 00:39:38;;;;;;;15.23;7.07;;;10.60;99.90;;;;;;5050359;28;20513;-66
2022/10/10 00:42:04;;;;;;;11.65;6.85;;;10.60;99.90;;;;;;5041342;28;20053;-66
2022/10/10 00:44:29;;;;;;;12.98;6.03;;;10.50;99.90;;;;;;5042117;28;20040;-66
2022/10/10 00:46:55;;;;;;;12.82;7.13;;;10.60;99.90;;;;;;5045733;28;20489;-66
2022/10/10 00:49:25;;;;;;;17.27;7.85;;;10.60;99.90;;;;;;5043355;28;20043;-66
2022/10/10 00:51:54;;;;;;;9.98;7.47;;;10.60;99.90;;;;;;5038666;28;20014;-66
2022/10/10 00:54:22;;;;;;;11.73;6.90;;;10.60;99.90;;;;;;5045665;28;20024;-66
2022/10/10 00:56:51;;;;;;;13.98;6.88;;;10.60;99.90;;;;;;5042091;28;20017;-66
2022/10/10 00:59:18;;;;;;;11.48;7.40;;;10.50;99.90;;;;;;5042673;28;20017;-65
2022/10/10 01:01:45;;;;;;;11.23;6.63;;;10.50;99.90;;;;;;5041663;28;20104;-66
2022/10/10 01:04:30;;;;;;;11.18;6.90;;;10.50;99.90;;;;;;5044968;28;20029;-66
2022/10/10 01:07:00;;;;;;;15.65;7.80;;;10.40;99.90;;;;;;5042858;28;20060;-65
2022/10/10 01:09:27;;;;;;;9.55;6.82;;;10.40;99.90;;;;;;5039480;28;20025;-66
2022/10/10 01:12:20;;;;;;;10.07;8.05;;;10.40;99.90;;;;;;5044214;28;20032;-66
2022/10/10 01:15:33;;;;;;;10.82;7.20;;;10.30;99.90;;;;;;5042338;28;20029;-66
2022/10/10 01:18:08;;;;;;;18.17;8.07;;;10.30;99.90;;;;;;5032955;28;20132;-66
2022/10/10 01:21:03;;;;;;;16.73;8.55;;;10.30;99.90;;;;;;5042740;28;20028;-66
2022/10/10 01:23:56;;;;;;;14.68;8.27;;;10.30;99.90;;;;;;5027726;28;20057;-66
2022/10/10 01:26:55;;;;;;;18.25;9.05;;;10.30;99.90;;;;;;5041590;28;20022;-66
2022/10/10 01:29:28;;;;;;;14.63;8.48;;;10.30;99.90;;;;;;5041365;28;20067;-66
2022/10/10 01:31:59;;;;;;;16.88;8.40;;;10.30;99.90;;;;;;5038966;28;20461;-66
2022/10/10 01:34:34;;;;;;;12.95;8.55;;;10.20;99.90;;;;;;5059927;28;20095;-66
2022/10/10 01:37:19;;;;;;;11.05;8.13;;;10.30;99.90;;;;;;5046003;28;20028;-66
2022/10/10 01:40:08;;;;;;;14.45;9.95;;;10.20;99.90;;;;;;5051115;28;20025;-66
2022/10/10 01:42:48;;;;;;;13.30;9.10;;;10.10;99.90;;;;;;5037820;28;20546;-67
2022/10/10 01:45:14;;;;;;;12.80;8.35;;;10.10;99.90;;;;;;5046697;28;20112;-66
2022/10/10 01:47:40;;;;;;;13.00;8.35;;;10.10;99.90;;;;;;5040059;28;20117;-66
2022/10/10 01:50:11;;;;;;;17.65;9.27;;;10.10;99.90;;;;;;5046356;28;20864;-66
2022/10/10 01:52:59;;;;;;;18.67;9.30;;;10.10;99.90;;;;;;5042550;28;20032;-66
2022/10/10 01:55:49;;;;;;;14.00;8.85;;;10.00;99.90;;;;;;5044912;28;20429;-66
2022/10/10 01:58:25;;;;;;;11.90;8.65;;;10.10;99.90;;;;;;5051061;28;20021;-66
2022/10/10 02:00:59;;;;;;;15.27;8.95;;;10.10;99.90;;;;;;5038780;28;20053;-66
2022/10/10 02:03:30;;;;;;;15.02;9.73;;;10.10;99.90;;;;;;5049754;28;20071;-66
2022/10/10 02:06:06;;;;;;;15.05;9.27;;;10.10;99.90;;;;;;5047884;28;20025;-66
2022/10/10 02:08:48;;;;;;;18.70;12.25;;;10.20;99.90;;;;;;5053572;28;20043;-66
2022/10/10 02:11:13;;;;;;;18.65;11.65;;;10.20;99.90;;;;;;5050372;28;20041;-66
2022/10/10 02:13:48;;;;;;;18.60;9.77;;;10.20;99.90;;;;;;5042557;28;20056;-66
2022/10/10 02:16:30;;;;;;;16.15;10.35;;;10.20;99.90;;;;;;5049903;28;20056;-66
2022/10/10 02:18:58;;;;;;;15.65;10.15;;;10.20;99.90;;;;;;5049784;28;20037;-66
2022/10/10 02:21:25;;;;;;;16.83;10.35;;;10.20;99.90;;;;;;5050554;28;20027;-66
2022/10/10 02:23:52;;;;;;;17.23;10.50;;;10.20;99.90;;;;;;5046302;28;20048;-66
2022/10/10 02:26:20;;;;;;;14.45;9.63;;;10.20;99.90;;;;;;5046434;28;20048;-66
2022/10/10 02:28:56;;;;;;;21.75;10.25;;;10.20;99.90;;;;;;5047094;28;20389;-66
2022/10/10 02:31:55;;;;;;;14.07;10.90;;;10.20;99.90;;;;;;5048456;28;20048;-66
2022/10/10 02:34:25;;;;;;;18.67;10.82;;;10.20;99.90;;;;;;5043826;28;20033;-66
2022/10/10 02:36:55;;;;;;;15.77;9.75;;;10.10;99.90;;;;;;5047143;28;20028;-66
2022/10/10 02:39:25;;;;;;;14.23;9.85;;;10.10;99.90;;;;;;5041854;28;20215;-66
2022/10/10 02:41:52;;;;;;;17.67;9.38;;;10.10;99.90;;;;;;5054995;28;20075;-66
2022/10/10 02:44:18;;;;;;;15.75;9.93;;;10.10;99.90;;;;;;5047108;28;20032;-66
2022/10/10 02:46:44;;;;;;;17.65;9.48;;;10.00;99.90;;;;;;5044865;28;20029;-67
2022/10/10 02:49:10;;;;;;;12.45;9.63;;;10.00;99.90;;;;;;5046192;28;20359;-66
2022/10/10 02:51:37;;;;;;;13.30;9.25;;;10.00;99.90;;;;;;5046975;28;20017;-66
2022/10/10 02:54:04;;;;;;;16.65;10.55;;;9.90;99.90;;;;;;5044009;28;20029;-67
2022/10/10 02:56:29;;;;;;;16.58;9.68;;;9.90;99.90;;;;;;5047281;28;20059;-66
2022/10/10 02:58:56;;;;;;;17.60;9.48;;;9.90;99.90;;;;;;5043667;28;20053;-67
2022/10/10 03:01:22;;;;;;;17.17;10.07;;;9.90;99.90;;;;;;5046821;28;20032;-67
2022/10/10 03:03:47;;;;;;;17.85;9.30;;;9.80;99.90;;;;;;5045215;28;20044;-66
2022/10/10 03:06:13;;;;;;;16.27;10.27;;;9.80;99.90;;;;;;5044860;28;20079;-66
2022/10/10 03:08:39;;;;;;;15.65;8.95;;;9.80;99.90;;;;;;5048712;28;20032;-66
2022/10/10 03:11:05;;;;;;;15.30;9.75;;;9.80;99.90;;;;;;5046736;28;20025;-67
2022/10/10 03:13:30;;;;;;;15.52;9.75;;;9.80;99.90;;;;;;5046701;28;20118;-66
2022/10/10 03:15:56;;;;;;;13.95;9.30;;;9.80;99.90;;;;;;5044296;28;20502;-66
2022/10/10 03:18:22;;;;;;;18.60;10.30;;;9.80;99.90;;;;;;5049878;28;20119;-66
2022/10/10 03:20:53;;;;;;;14.27;10.15;;;9.80;99.90;;;;;;5048428;28;20021;-66
2022/10/10 03:23:19;;;;;;;15.52;8.95;;;9.80;99.90;;;;;;5045662;28;20063;-66
2022/10/10 03:25:45;;;;;;;18.95;10.23;;;9.70;99.90;;;;;;5053348;28;20021;-66
2022/10/10 03:28:12;;;;;;;20.73;10.05;;;9.70;99.90;;;;;;5041470;28;20021;-67
2022/10/10 03:30:38;;;;;;;19.88;8.90;;;9.70;99.90;;;;;;5044401;28;20370;-66
2022/10/10 03:33:04;;;;;;;15.13;9.80;;;9.70;99.90;;;;;;5044769;28;20347;-67
2022/10/10 03:35:30;;;;;;;18.30;9.90;;;9.70;99.90;;;;;;5046195;28;20036;-66
2022/10/10 03:37:56;;;;;;;12.00;9.80;;;9.60;99.90;;;;;;5051010;28;20018;-66
2022/10/10 03:40:22;;;;;;;14.65;9.35;;;9.60;99.90;;;;;;5044366;28;20083;-67
2022/10/10 03:42:48;;;;;;;15.05;9.80;;;9.50;99.90;;;;;;5053699;28;20029;-68
2022/10/10 03:45:13;;;;;;;16.80;9.88;;;9.50;99.90;;;;;;5043364;28;20037;-66
2022/10/10 03:47:39;;;;;;;13.10;9.35;;;9.50;99.90;;;;;;5045351;28;20068;-66
2022/10/10 03:50:05;;;;;;;16.80;9.38;;;9.50;99.90;;;;;;5047816;28;20036;-66
2022/10/10 03:52:31;;;;;;;14.30;9.27;;;9.50;99.90;;;;;;5041923;28;20065;-67
2022/10/10 03:54:56;;;;;;;12.43;8.70;;;9.50;99.90;;;;;;5040469;28;20052;-66
2022/10/10 03:57:22;;;;;;;20.75;9.23;;;9.50;99.90;;;;;;5049098;28;20041;-66
2022/10/10 03:59:47;;;;;;;14.25;9.50;;;9.40;99.90;;;;;;5046338;28;20078;-67
2022/10/10 04:02:13;;;;;;;17.05;9.65;;;9.40;99.90;;;;;;5043512;28;20024;-67
2022/10/10 04:04:39;;;;;;;16.70;10.00;;;9.40;99.90;;;;;;5047625;28;20064;-66
2022/10/10 04:07:04;;;;;;;17.33;11.05;;;9.50;99.90;;;;;;5043479;28;20075;-66
2022/10/10 04:09:30;;;;;;;12.52;9.10;;;9.50;99.90;;;;;;5043489;28;20028;-67
2022/10/10 04:11:56;;;;;;;21.92;9.73;;;9.50;99.90;;;;;;5044595;28;20478;-66
2022/10/10 04:14:21;;;;;;;15.07;8.77;;;9.40;99.90;;;;;;5047701;28;20040;-66
2022/10/10 04:16:47;;;;;;;18.85;9.05;;;9.40;99.90;;;;;;5044854;28;20082;-66
2022/10/10 04:19:13;;;;;;;13.35;9.57;;;9.40;99.90;;;;;;5047050;28;20119;-66
2022/10/10 04:21:39;;;;;;;16.90;9.95;;;9.40;99.90;;;;;;5044839;28;20163;-66
2022/10/10 04:24:04;;;;;;;15.40;9.60;;;9.30;99.90;;;;;;5042616;28;20443;-66
2022/10/10 04:26:30;;;;;;;15.15;9.70;;;9.30;99.90;;;;;;5044870;28;20033;-66
2022/10/10 04:28:55;;;;;;;21.52;10.82;;;9.30;99.90;;;;;;5038246;28;20031;-67
2022/10/10 04:31:21;;;;;;;15.82;9.68;;;9.30;99.90;;;;;;5053846;28;20613;-66
2022/10/10 04:33:47;;;;;;;13.43;9.40;;;9.30;99.90;;;;;;5047282;28;20033;-66
2022/10/10 04:36:12;;;;;;;12.98;8.73;;;9.30;99.90;;;;;;5046036;28;20060;-66
2022/10/10 04:38:38;;;;;;;14.77;9.45;;;9.30;99.90;;;;;;5044636;28;20074;-66
2022/10/10 04:41:03;;;;;;;15.88;9.38;;;9.40;99.90;;;;;;5041906;28;20448;-66
2022/10/10 04:43:29;;;;;;;14.32;9.63;;;9.40;99.90;;;;;;5049218;28;20032;-66
2022/10/10 04:45:57;;;;;;;17.92;8.57;;;9.40;99.90;;;;;;5040247;28;20049;-66
2022/10/10 04:48:23;;;;;;;14.38;7.88;;;9.40;99.90;;;;;;5036325;28;20059;-66
2022/10/10 04:50:56;;;;;;;16.73;8.90;;;9.40;99.90;;;;;;5039838;28;20466;-67
2022/10/10 04:53:23;;;;;;;19.58;9.73;;;9.40;99.90;;;;;;5038315;28;20041;-66
2022/10/10 04:55:49;;;;;;;13.70;9.07;;;9.40;99.90;;;;;;5041858;28;20040;-66
2022/10/10 04:58:15;;;;;;;13.27;8.52;;;9.40;99.90;;;;;;5048033;28;20056;-66
2022/10/10 05:00:41;;;;;;;22.48;9.50;;;9.40;99.90;;;;;;5042550;28;20083;-66
2022/10/10 05:03:09;;;;;;;12.23;9.05;;;9.40;99.90;;;;;;5044524;28;20033;-66
2022/10/10 05:05:34;;;;;;;14.85;8.35;;;9.40;99.90;;;;;;5039324;28;20465;-66
2022/10/10 05:08:00;;;;;;;14.18;8.25;;;9.40;99.90;;;;;;5043559;28;20029;-66
2022/10/10 05:10:25;;;;;;;14.25;8.27;;;9.40;99.90;;;;;;5042061;28;20024;-66
2022/10/10 05:12:51;;;;;;;13.77;7.60;;;9.40;99.90;;;;;;5048680;28;20017;-66
2022/10/10 05:15:17;;;;;;;11.30;7.57;;;9.40;99.90;;;;;;5044241;28;20124;-66
2022/10/10 05:17:43;;;;;;;15.77;8.52;;;9.40;99.90;;;;;;5042693;28;20032;-66
2022/10/10 05:20:10;;;;;;;15.65;8.13;;;9.40;99.90;;;;;;5038269;28;20025;-66
2022/10/10 05:22:35;;;;;;;15.18;7.78;;;9.40;99.90;;;;;;5042033;28;20036;-66
2022/10/10 05:25:02;;;;;;;13.98;8.55;;;9.40;99.90;;;;;;5044633;28;20394;-66
2022/10/10 05:27:27;;;;;;;17.98;8.43;;;9.40;99.90;;;;;;5040679;28;20032;-66
2022/10/10 05:29:54;;;;;;;14.23;8.55;;;9.40;99.90;;;;;;5040144;28;20033;-66
2022/10/10 05:32:20;;;;;;;14.40;8.55;;;9.40;99.90;;;;;;5039979;28;20022;-66
2022/10/10 05:34:46;;;;;;;15.57;8.13;;;9.40;99.90;;;;;;5040296;28;20036;-66
2022/10/10 05:37:12;;;;;;;14.02;7.93;;;9.40;99.90;;;;;;5045854;28;20021;-66
2022/10/10 05:39:37;;;;;;;9.82;7.13;;;9.40;99.90;;;;;;5039270;28;20029;-66
2022/10/10 05:42:03;;;;;;;16.65;8.00;;;9.40;99.90;;;;;;5048795;28;20100;-66
2022/10/10 05:44:30;;;;;;;13.63;7.18;;;9.40;99.90;;;;;;5039247;28;20036;-67
2022/10/10 05:46:55;;;;;;;15.27;7.05;;;9.40;99.90;;;;;;5043894;28;20029;-66
2022/10/10 05:49:21;;;;;;;12.73;7.03;;;9.40;99.90;;;;;;5051061;28;20025;-66
2022/10/10 05:51:46;;;;;;;10.57;6.63;;;9.40;99.90;;;;;;5040815;28;20424;-66
2022/10/10 05:54:12;;;;;;;18.27;8.77;;;9.40;99.90;;;;;;5042166;28;20030;-66
2022/10/10 05:56:38;;;;;;;13.10;9.27;;;9.30;99.90;;;;;;5042042;28;20024;-66
2022/10/10 05:59:03;;;;;;;20.30;12.88;;;9.30;99.90;;;;;;5039513;28;20025;-66
2022/10/10 06:01:29;;;;;;;19.42;11.50;;;9.30;99.90;;;;;;5041133;28;20029;-66
2022/10/10 06:03:55;;;;;;;14.65;8.10;;;9.30;99.90;;;;;;5042642;28;20389;-66
2022/10/10 06:06:24;;;;;;;17.90;8.88;;;9.30;99.90;;;;;;5041897;28;20033;-66
2022/10/10 06:08:50;;;;;;;15.35;8.73;;;9.20;99.90;;;;;;5038040;28;20109;-66
2022/10/10 06:11:18;;;;;;;13.07;7.35;;;9.30;99.90;;;;;;5048527;28;20104;-65
2022/10/10 06:13:44;;;;;;;10.55;6.75;;;9.30;99.90;;;;;;5042930;28;20028;-66
2022/10/10 06:16:10;;;;;;;15.25;8.00;;;9.30;99.90;;;;;;5034878;28;20156;-67
2022/10/10 06:18:35;;;;;;;12.57;8.63;;;9.30;99.90;;;;;;5036551;28;20156;-66
2022/10/10 06:21:03;;;;;;;18.67;11.27;;;9.40;99.90;;;;;;5047738;28;20124;-67
2022/10/10 06:23:29;;;;;;;21.35;8.95;;;9.40;99.90;;;;;;5048113;28;20055;-66
2022/10/10 06:25:54;;;;;;;12.80;8.45;;;9.40;99.90;;;;;;5038549;28;20381;-66
2022/10/10 06:28:21;;;;;;;19.65;8.82;;;9.40;99.90;;;;;;5037838;28;20106;-66
2022/10/10 06:30:49;;;;;;;16.02;9.63;;;9.30;99.90;;;;;;5043283;28;20610;-67
2022/10/10 06:33:17;;;;;;;16.25;10.30;;;9.30;99.90;;;;;;5048423;28;20104;-67
2022/10/10 06:35:45;;;;;;;14.23;8.38;;;9.40;99.90;;;;;;5039910;28;20083;-66
2022/10/10 06:38:12;;;;;;;13.57;7.30;;;9.40;99.90;;;;;;5036140;28;20021;-66
2022/10/10 06:40:38;;;;;;;15.73;8.73;;;9.50;99.90;;;;;;5050827;28;20031;-67
2022/10/10 06:43:10;;;;;;;11.95;6.90;;;9.50;99.90;;;;;;5043689;28;20051;-66
2022/10/10 06:45:41;;;;;;;12.20;7.43;;;9.50;99.90;;;;;;5048889;28;20087;-66
2022/10/10 06:48:07;;;;;;;19.15;6.40;;;9.50;99.90;;;;;;5040051;28;20025;-67
2022/10/10 06:50:33;;;;;;;11.20;6.40;;;9.50;99.90;;;;;;5047472;28;20036;-66
2022/10/10 06:52:59;;;;;;;13.10;6.95;;;9.50;99.90;;;;;;5046196;28;20078;-66
2022/10/10 06:55:25;;;;;;;12.93;7.05;;;9.60;99.90;;;;;;5044693;28;20083;-66
2022/10/10 06:57:50;;;;;;;19.60;7.57;;;9.60;99.90;;;;;;5006988;28;20029;-67
2022/10/10 07:00:16;;;;;;;18.75;9.52;;;9.60;99.90;;;;;;5034084;28;20086;-66
2022/10/10 07:02:42;;;;;;;21.00;10.48;;;9.50;99.90;;;;;;5043223;28;20112;-66
2022/10/10 07:05:12;;;;;;;15.43;9.20;;;9.60;99.90;;;;;;5046519;28;20037;-66
2022/10/10 07:07:39;;;;;;;24.33;9.25;;;9.60;99.90;;;;;;5045424;28;20035;-66
2022/10/10 07:10:05;;;;;;;15.38;8.43;;;9.60;99.90;;;;;;5046560;28;20021;-66
2022/10/10 07:12:31;;;;;;;11.60;7.20;;;9.60;99.90;;;;;;5051107;28;20020;-66
2022/10/10 07:14:57;;;;;;;15.30;9.23;;;9.70;99.90;;;;;;5049585;28;20128;-66
2022/10/10 07:17:22;;;;;;;12.00;8.52;;;9.70;99.90;;;;;;5047518;28;20041;-66
2022/10/10 07:19:48;;;;;;;20.83;7.78;;;9.70;99.90;;;;;;5045348;28;20024;-67
2022/10/10 07:22:13;;;;;;;18.67;8.35;;;9.70;99.90;;;;;;5051946;28;20020;-66
2022/10/10 07:24:39;;;;;;;15.45;8.85;;;9.70;99.90;;;;;;5042393;28;20516;-67
2022/10/10 07:27:05;;;;;;;19.25;11.55;;;9.70;99.90;;;;;;5047241;28;20086;-67
2022/10/10 07:29:31;;;;;;;17.33;10.10;;;9.80;99.90;;;;;;5049940;28;20362;-67
2022/10/10 07:31:57;;;;;;;17.80;9.07;;;9.80;99.90;;;;;;5048763;28;20025;-67
2022/10/10 07:34:23;;;;;;;16.20;9.63;;;9.90;99.90;;;;;;5050417;28;20607;-67
2022/10/10 07:36:49;;;;;;;20.52;9.77;;;9.90;99.90;;;;;;5052918;28;20350;-66
2022/10/10 07:39:19;;;;;;;18.25;9.20;;;9.90;99.90;;;;;;5046854;28;20022;-66
2022/10/10 07:41:44;;;;;;;16.70;9.15;;;10.00;99.90;;;;;;5049487;28;20049;-67
2022/10/10 07:44:10;;;;;;;18.38;9.63;;;10.20;99.90;;;;;;5047494;28;20084;-66
2022/10/10 07:46:35;;;;;;;19.88;10.00;;;10.20;99.90;;;;;;5045995;28;20037;-67
2022/10/10 07:49:01;;;;;;;13.23;7.85;;;10.30;99.90;;;;;;5046035;28;20032;-67
2022/10/10 07:51:27;;;;;;;19.63;8.63;;;10.50;99.90;;;;;;5042021;28;20394;-67
2022/10/10 07:53:52;;;;;;;14.45;8.52;;;10.70;99.90;;;;;;5039423;28;20036;-68
2022/10/10 07:56:18;;;;;;;14.05;8.90;;;10.80;99.90;;;;;;5044715;28;20506;-67
2022/10/10 07:58:44;;;;;;;14.98;8.63;;;10.90;99.90;;;;;;5046798;28;20029;-67
2022/10/10 08:01:11;;;;;;;18.52;8.25;;;11.10;99.90;;;;;;5043691;28;20045;-68
2022/10/10 08:03:37;;;;;;;14.23;7.55;;;11.30;99.90;;;;;;5042822;28;20032;-71
2022/10/10 08:06:09;;;;;;;19.63;7.93;;;11.50;99.90;;;;;;5042153;28;20468;-67
2022/10/10 08:08:35;;;;;;;15.32;6.93;;;11.60;99.90;;;;;;5043995;28;20033;-67
2022/10/10 08:11:04;;;;;;;14.50;7.22;;;11.80;99.90;;;;;;5038720;28;20031;-67
2022/10/10 08:13:30;;;;;;;19.17;7.45;;;11.90;99.90;;;;;;5046494;28;20027;-67
2022/10/10 08:15:55;;;;;;;12.30;6.55;;;12.20;99.90;;;;;;5047013;28;20040;-67
2022/10/10 08:18:21;;;;;;;9.77;6.75;;;12.30;99.90;;;;;;5047301;28;20024;-68
2022/10/10 08:20:46;;;;;;;16.52;7.40;;;12.30;99.90;;;;;;5044631;28;20040;-68
2022/10/10 08:23:12;;;;;;;14.32;7.18;;;12.40;99.90;;;;;;5050412;28;20587;-68
2022/10/10 08:25:38;;;;;;;12.05;6.43;;;12.50;99.90;;;;;;5048666;28;20032;-70
2022/10/10 08:28:03;;;;;;;11.55;5.65;;;12.50;99.90;;;;;;5045553;28;20565;-67
2022/10/10 08:30:29;;;;;;;10.15;6.25;;;12.70;99.90;;;;;;5043418;28;20017;-67
2022/10/10 08:32:55;;;;;;;11.82;5.18;;;12.90;99.90;;;;;;5040941;28;20742;-67
2022/10/10 08:35:20;;;;;;;10.30;5.57;;;13.00;99.90;;;;;;5046194;28;20036;-67
2022/10/10 08:37:46;;;;;;;12.50;5.60;;;13.10;99.90;;;;;;5046127;28;20031;-67
2022/10/10 08:40:16;;;;;;;11.65;5.95;;;13.30;99.90;;;;;;5044749;28;20469;-67
2022/10/10 08:42:47;;;;;;;12.70;6.18;;;13.40;99.90;;;;;;5044151;28;20024;-67
2022/10/10 08:45:21;;;;;;;11.73;6.10;;;13.50;99.90;;;;;;5046413;28;20037;-67
2022/10/10 08:47:55;;;;;;;13.88;6.05;;;13.70;99.90;;;;;;5043181;28;20431;-68
2022/10/10 08:50:29;;;;;;;16.58;4.72;;;13.80;99.90;;;;;;5046809;28;20032;-68
2022/10/10 08:53:13;;;;;;;11.20;5.32;;;13.80;99.90;;;;;;5039210;28;20029;-67
2022/10/10 08:55:42;;;;;;;7.90;5.55;;;13.90;99.90;;;;;;5046117;28;20083;-67
2022/10/10 08:58:22;;;;;;;12.13;4.88;;;14.00;99.90;;;;;;5039471;28;20113;-68
2022/10/10 09:01:14;;;;;;;12.60;4.70;;;14.10;99.90;;;;;;5039169;28;20512;-68
2022/10/10 09:03:48;;;;;;;13.27;5.00;;;14.10;99.90;;;;;;5034728;28;20497;-69
2022/10/10 09:06:19;;;;;;;10.63;4.95;;;14.20;99.90;;;;;;5046958;28;20512;-68
2022/10/10 09:08:59;;;;;;;18.27;5.80;;;14.30;99.90;;;;;;5048409;28;20468;-68
2022/10/10 09:11:54;;;;;;;16.80;5.13;;;14.30;99.90;;;;;;5041480;28;20032;-68
2022/10/10 09:14:43;;;;;;;13.75;5.03;;;14.50;99.90;;;;;;5040544;28;20036;-68
2022/10/10 09:17:30;;;;;;;9.27;4.35;;;14.60;99.90;;;;;;5043017;28;20051;-67
2022/10/10 09:20:01;;;;;;;13.95;5.20;;;14.70;99.90;;;;;;5044493;28;20028;-69
2022/10/10 09:22:32;;;;;;;13.27;4.35;;;14.90;99.90;;;;;;5040076;28;20139;-69
2022/10/10 09:25:26;;;;;;;10.95;4.65;;;15.00;99.90;;;;;;5043804;28;20154;-68
2022/10/10 09:28:02;;;;;;;11.63;4.38;;;15.20;99.90;;;;;;5041666;28;20036;-68
2022/10/10 09:30:31;;;;;;;14.77;4.80;;;15.40;99.90;;;;;;5045141;28;20050;-68
2022/10/10 09:33:20;;;;;;;9.70;4.03;;;15.40;99.90;;;;;;5037887;28;20098;-68
2022/10/10 09:35:47;;;;;;;9.77;4.88;;;15.50;99.90;;;;;;5024178;28;20102;-68
2022/10/10 09:38:21;;;;;;;8.18;4.57;;;15.60;99.90;;;;;;5042432;28;20494;-69
2022/10/10 09:41:01;;;;;;;9.02;4.72;;;15.80;99.90;;;;;;5040062;28;20036;-69
2022/10/10 09:43:30;;;;;;;11.70;4.95;;;16.10;99.90;;;;;;5043043;28;20056;-68
2022/10/10 09:45:56;;;;;;;11.95;3.97;;;16.20;99.90;;;;;;5043423;28;20033;-69
2022/10/10 09:48:28;;;;;;;13.18;4.03;;;16.30;99.90;;;;;;5043901;28;20079;-68
2022/10/10 09:50:53;;;;;;;9.32;4.47;;;16.40;99.90;;;;;;5038666;28;20118;-67
2022/10/10 09:53:19;;;;;;;12.50;4.20;;;16.40;99.90;;;;;;5038598;28;20025;-67
2022/10/10 09:55:46;;;;;;;9.80;3.70;;;16.40;99.90;;;;;;5040733;28;20025;-67
2022/10/10 09:58:33;;;;;;;10.98;4.80;;;16.50;99.90;;;;;;5043059;28;20028;-67
2022/10/10 10:01:13;;;;;;;10.75;3.95;;;16.50;99.90;;;;;;5042514;28;20037;-67
2022/10/10 10:03:39;;;;;;;8.75;3.78;;;16.60;99.90;;;;;;5047842;28;20724;-67
2022/10/10 10:06:09;;;;;;;11.63;3.65;;;16.60;99.90;;;;;;5049135;28;20099;-68
2022/10/10 10:08:35;;;;;;;9.00;3.80;;;16.60;99.90;;;;;;5052048;28;20040;-69
2022/10/10 10:11:03;;;;;;;12.65;3.80;;;16.70;99.90;;;;;;5043662;28;20030;-68
2022/10/10 10:13:34;;;;;;;13.90;5.05;;;16.80;99.90;;;;;;5044518;28;20529;-69
2022/10/10 10:16:10;;;;;;;9.55;3.88;;;16.80;99.90;;;;;;5047585;28;20033;-69
2022/10/10 10:18:44;;;;;;;10.63;3.85;;;16.90;99.90;;;;;;5049869;28;20033;-69
2022/10/10 10:21:19;;;;;;;10.10;3.92;;;16.90;99.90;;;;;;5045044;28;20029;-70
2022/10/10 10:23:52;;;;;;;13.40;4.20;;;16.90;99.90;;;;;;5051138;28;20480;-69
2022/10/10 10:26:42;;;;;;;10.57;3.10;;;17.00;99.90;;;;;;5046149;28;20025;-69
2022/10/10 10:29:30;;;;;;;8.65;3.42;;;17.00;99.90;;;;;;5049151;28;20138;-68
2022/10/10 10:32:02;;;;;;;9.55;3.80;;;17.00;99.90;;;;;;5043832;28;20017;-68
2022/10/10 10:34:30;;;;;;;10.55;3.70;;;17.00;99.90;;;;;;5050557;28;20029;-68
2022/10/10 10:37:12;;;;;;;17.05;4.15;;;17.00;99.90;;;;;;5046004;28;20067;-68
2022/10/10 10:39:59;;;;;;;7.30;3.85;;;17.00;99.90;;;;;;5044175;28;20348;-68
2022/10/10 10:42:25;;;;;;;8.10;3.50;;;17.10;99.90;;;;;;5038549;28;20040;-69
2022/10/10 10:45:12;;;;;;;11.23;3.60;;;17.30;99.90;;;;;;5041161;28;20037;-69
2022/10/10 10:47:40;;;;;;;8.98;3.92;;;17.40;99.90;;;;;;5048100;28;20032;-68
2022/10/10 10:50:32;;;;;;;8.80;3.92;;;17.40;99.90;;;;;;5035280;28;20126;-68
2022/10/10 10:53:18;;;;;;;10.75;3.80;;;17.40;99.90;;;;;;5040751;28;20040;-68
2022/10/10 10:55:52;;;;;;;9.07;4.05;;;17.50;99.90;;;;;;5049430;28;20174;-69
2022/10/10 10:58:30;;;;;;;12.32;4.80;;;17.50;99.90;;;;;;5046578;28;20443;-68
2022/10/10 11:01:08;;;;;;;8.20;4.00;;;17.60;99.90;;;;;;5042454;28;20084;-69
2022/10/10 11:03:58;;;;;;;14.27;4.88;;;17.70;99.90;;;;;;5045367;28;20459;-68
2022/10/10 11:06:41;;;;;;;9.80;3.53;;;17.70;99.90;;;;;;5047213;28;20056;-68
2022/10/10 11:09:17;;;;;;;13.43;4.10;;;17.70;99.90;;;;;;5044031;28;21191;-68
2022/10/10 11:12:02;;;;;;;8.50;3.92;;;17.80;99.90;;;;;;5039630;28;20025;-69
2022/10/10 11:14:39;;;;;;;16.58;4.75;;;17.80;99.90;;;;;;5044364;28;20025;-69
2022/10/10 11:17:18;;;;;;;11.15;3.88;;;17.80;99.90;;;;;;5039316;28;20542;-71
2022/10/10 11:19:56;;;;;;;12.70;4.60;;;17.80;99.90;;;;;;5047544;28;20029;-68
2022/10/10 11:22:28;;;;;;;11.13;4.72;;;17.90;99.90;;;;;;5044177;28;20025;-68
2022/10/10 11:25:04;;;;;;;8.77;4.18;;;17.90;99.90;;;;;;5039678;28;20257;-68
2022/10/10 11:27:47;;;;;;;13.38;4.20;;;17.90;99.90;;;;;;5047763;28;20036;-69
2022/10/10 11:30:39;;;;;;;8.55;4.18;;;17.90;99.90;;;;;;5049319;28;20024;-68
2022/10/10 11:33:13;;;;;;;12.37;5.20;;;17.90;99.90;;;;;;5037929;28;21590;-68
2022/10/10 11:35:48;;;;;;;12.82;4.05;;;18.00;99.90;;;;;;5053889;28;20033;-68
2022/10/10 11:38:39;;;;;;;9.15;3.97;;;18.00;99.90;;;;;;5050953;28;20690;-68
2022/10/10 11:41:26;;;;;;;16.00;4.75;;;18.00;99.90;;;;;;5047364;28;20021;-69
2022/10/10 11:43:52;;;;;;;10.18;4.20;;;18.00;99.90;;;;;;5041307;28;20401;-69
2022/10/10 11:46:55;;;;;;;11.50;3.95;;;18.20;99.90;;;;;;5043156;28;20018;-67
2022/10/10 11:49:31;;;;;;;;;;;18.20;99.90;;;;;;5046160;28;20037;-68
2022/10/10 11:51:56;;;;;;;13.10;4.32;;;18.30;99.90;;;;;;5041719;28;20000;-68
2022/10/10 11:54:48;;;;;;;9.35;3.78;;;18.30;99.90;;;;;;5049161;28;20111;-68
2022/10/10 11:57:25;;;;;;;16.35;4.50;;;18.50;99.90;;;;;;5048208;28;20035;-68
2022/10/10 11:59:56;;;;;;;8.93;4.50;;;18.70;99.90;;;;;;5043912;28;20021;-68
2022/10/10 12:02:36;;;;;;;13.80;5.07;;;18.80;99.90;;;;;;5043934;28;20037;-68
2022/10/10 12:05:06;;;;;;;12.63;4.38;;;19.00;99.90;;;;;;5050912;28;20613;-68
2022/10/10 12:07:41;;;;;;;11.55;4.05;;;19.00;99.90;;;;;;5041533;28;20017;-68
2022/10/10 12:10:20;;;;;;;14.30;5.05;;;19.20;99.90;;;;;;5047818;28;20029;-69
2022/10/10 12:12:49;;;;;;;14.93;4.47;;;19.20;99.90;;;;;;5045339;28;20029;-67
2022/10/10 12:15:42;;;;;;;12.75;3.72;;;19.20;99.90;;;;;;5050318;28;20036;-68
2022/10/10 12:18:23;;;;;;;11.77;3.97;;;19.20;99.90;;;;;;5040517;28;20037;-68
2022/10/10 12:21:01;;;;;;;11.10;3.63;;;19.20;99.90;;;;;;5042889;28;20036;-68
2022/10/10 12:23:31;;;;;;;7.55;3.33;;;19.00;99.90;;;;;;5044067;28;20064;-68
2022/10/10 12:25:57;;;;;;;10.07;3.55;;;19.10;99.90;;;;;;5042081;28;20021;-69
2022/10/10 12:28:32;;;;;;;7.95;3.50;;;19.00;99.90;;;;;;5041630;28;20086;-68
2022/10/10 12:31:04;;;;;;;11.20;3.67;;;19.10;99.90;;;;;;5048723;28;20032;-68
2022/10/10 12:33:32;;;;;;;7.70;2.95;;;19.10;99.90;;;;;;5042503;28;20036;-67
2022/10/10 12:36:19;;;;;;;7.35;3.20;;;19.10;99.90;;;;;;5046751;28;20048;-67
2022/10/10 12:38:59;;;;;;;13.75;3.72;;;19.20;99.90;;;;;;5049495;28;20031;-68
2022/10/10 12:41:48;;;;;;;9.50;3.05;;;19.30;99.90;;;;;;5041961;28;20165;-69
2022/10/10 12:44:45;;;;;;;12.23;3.67;;;19.30;99.90;;;;;;5050699;28;20127;-68
2022/10/10 12:47:13;;;;;;;11.98;4.10;;;19.30;99.90;;;;;;5043263;28;20033;-69
2022/10/10 12:50:00;;;;;;;11.40;3.20;;;19.40;99.90;;;;;;5040922;28;20065;-68
2022/10/10 12:52:45;;;;;;;13.27;3.78;;;19.40;99.90;;;;;;5041962;28;20025;-68
2022/10/10 12:55:44;;;;;;;13.40;3.90;;;19.50;99.90;;;;;;5041178;28;20211;-68
2022/10/10 12:58:20;;;;;;;13.10;3.67;;;19.40;99.90;;;;;;5045547;28;20026;-68
2022/10/10 13:00:47;;;;;;;12.95;3.78;;;19.40;99.90;;;;;;5045893;28;20062;-68